Ringling, OK

9:23 PM CDT on July 22, 2014 (GMT -0500)
Ardmore Downtown (K1F0) Elev 843 ft | 34.15 °N, 97.12 °W | Change Station
Active Advisory: Heat Advisory

Current weather conditions updated 8 minutes ago

Clear
Clear
82 °F
Feels Like 87 °F
N
0
Wind Variable Wind from North

Tomorrow is forecast to be Warmer than today.

Today
High -- | Low -- °F
--% Chance of Precip.
Yesterday
High -- | Low -- °F
Precip. -- in
6:34 AM 8:38 PM
Waning Crescent, 13% visible
Pressure 30.06 in
Visibility 10.0 miles
Clouds Clear
Heat Index 87 °F
Dew Point 72 °F
Humidity 70%
Rainfall 0.02 in
Snow Depth Not available.
UV 0 out of 12
Pollen 5.20 out of 12
Air Quality Not available.
Flu Activity Not available.
METAR K1F0 230215Z AUTO 00000KT 10SM CLR 28/22 A3006 RMK AO2

More Conditions Fewer Conditions

Pressure 30.06 in
Visibility 10.0 miles
Clouds Clear
Heat Index 87 °F
Dew Point 72 °F
Humidity 70%
Rainfall 0.02 in
Snow Depth Not available.
UV 0 out of 12
Pollen 5.20 out of 12
Air Quality Not available.
Flu Activity Not available.
METAR K1F0 230215Z AUTO 00000KT 10SM CLR 28/22 A3006 RMK AO2

More Conditions Fewer Conditions

10-Day Weather Forecast

Almanac

Astronomy

Jul. 22, 2014 Rise Set
Actual Time 6:34 AM CDT 8:38 PM CDT
Civil Twilight 6:06 AM CDT 9:07 PM CDT
Nautical Twilight 5:32 AM CDT 9:41 PM CDT
Astronomical Twilight 4:55 AM CDT 10:17 PM CDT
Moon 3:06 AM CDT (7/22) 5:19 PM CDT (7/22)
Length of Visible Light 15h 00m
Length of Day
14h 04m
Tomorrow will be 1m 21s shorter.
Waning Crescent, 13% of the Moon is Illuminated
Today
Waning Crescent
Jul 26
New
Aug 3
First Quarter
Aug 10
Full
Aug 17
Last Quarter

Today's Extremes

State Highs State Lows

Community

WunderPhotos

Upload Photos

1,736,454 photos uploaded!

Nearby

Snow Depth

Station Depth Elevation
No new snow has been reported.

Earthquake Activity

City Distance Mag. Time & Date
Spencer, Oklahoma 98 miles 2.7 4:56 PM CDT
2014-07-18
Guthrie, Oklahoma 117 miles 2.9 8:59 PM CDT
2014-07-17
Perry, Oklahoma 135 miles 2.8 8:37 PM CDT
2014-07-17
Guthrie, Oklahoma 117 miles 2.6 7:09 PM CDT
2014-07-16
Minimum magnitude displayed is 2.5.

Coastal Water Temperatures

Place Temperature
No Stations Reporting

Nearby Weather Stations

Station Location Temp. Heat Index Dew Point Humidity Wind Precip. Elev Updated Type
Carter County Dist 2, Healdton, OK 85.3 °F 94 °F 75 °F 72% SE  at  0.0 mph 0.00 in / hr 933 ft 9:15 PM CDT Normal
Grady/Oscar, Grady, OK 84.4 °F 91 °F 73 °F 68% East  at  2.0 mph 0.00 in / hr 896 ft 9:21 PM CDT Rapid Fire
Fox Volunteer Fire Department, Fox, OK 85.8 °F 95 °F 75 °F 70% ESE  at  1.0 mph 0.00 in / hr 988 ft 9:20 PM CDT Normal
Carter County Dist 3, Lone Grove, OK 84.3 °F 92 °F 74 °F 72% SE  at  3.0 mph 0.00 in / hr 927 ft 9:14 PM CDT Normal
Ratliff City PD, Ratliff City, OK 83.5 °F 90 °F 74 °F 72% SE  at  0.0 mph 0.00 in / hr 1089 ft 9:19 PM CDT Normal
MesoWest COMNCH , Comanche, OK 98 °F 93 °F - - North  at  - 0.00 in / hr 994 ft 6:40 PM CDT MADIS

Show More Stations Show Fewer Stations